Time;durP1;ratioP1;P1;durP2;ratioP2;P2;SDS_P1;SDS_P2;PMS_P1;PMS_P2;Temp;Humidity;BMP_temperature;BMP_pressure;BME280_temperature;BME280_humidity;BME280_pressure;Samples;Min_cycle;Max_cycle;Signal;HPM_P1;HPM_P2
2022/11/12 00:02:27;;;;;;;15.52;12.15;;;12.40;85.40;;;;;;11018947;32;20060;-77
2022/11/12 00:08:47;;;;;;;17.92;15.65;;;12.20;86.00;;;;;;11016349;32;20395;-77
2022/11/12 00:15:07;;;;;;;17.75;14.32;;;12.20;86.10;;;;;;11018561;32;20415;-77
2022/11/12 00:21:27;;;;;;;18.55;16.17;;;12.50;85.90;;;;;;11023202;26;20053;-77
2022/11/12 00:27:51;;;;;;;23.90;17.92;;;12.60;85.70;;;;;;10939297;32;20026;-77
2022/11/12 00:34:11;;;;;;;13.62;12.18;;;12.50;85.80;;;;;;10939170;32;20027;-77
2022/11/12 00:40:32;;;;;;;19.00;14.60;;;12.50;85.50;;;;;;10935998;32;20077;-77
2022/11/12 00:46:53;;;;;;;18.42;13.05;;;12.60;85.50;;;;;;10938957;32;20399;-78
2022/11/12 00:53:13;;;;;;;13.55;11.73;;;12.40;85.60;;;;;;10928257;32;20018;-77
2022/11/12 00:59:32;;;;;;;14.98;12.65;;;12.40;85.50;;;;;;11015271;32;20310;-77
2022/11/12 01:05:53;;;;;;;12.02;9.85;;;12.20;85.60;;;;;;11005756;32;20031;-77
2022/11/12 01:12:13;;;;;;;14.30;12.50;;;12.10;85.80;;;;;;11017253;32;20045;-77
2022/11/12 01:18:33;;;;;;;13.62;10.57;;;12.20;85.70;;;;;;11015079;32;20022;-77
2022/11/12 01:24:53;;;;;;;22.50;16.33;;;12.10;85.50;;;;;;11017045;32;20044;-77
2022/11/12 01:31:16;;;;;;;16.80;13.90;;;12.00;85.70;;;;;;11007156;32;20019;-77
2022/11/12 01:37:36;;;;;;;16.77;14.68;;;12.10;85.40;;;;;;11017371;32;20011;-77
2022/11/12 01:44:29;;;;;;;16.27;14.27;;;12.10;85.40;;;;;;11016528;32;20048;-77
2022/11/12 01:50:49;;;;;;;14.32;11.95;;;12.20;85.30;;;;;;10828409;32;20106;-77
2022/11/12 01:57:11;;;;;;;14.48;12.73;;;12.10;85.10;;;;;;10831780;32;20024;-77
2022/11/12 02:03:31;;;;;;;14.52;13.00;;;11.90;85.40;;;;;;10831564;32;20349;-77
2022/11/12 02:09:52;;;;;;;14.85;13.18;;;11.90;85.30;;;;;;10831153;32;20471;-77
2022/11/12 02:16:14;;;;;;;16.42;14.27;;;11.70;85.50;;;;;;10831337;32;20055;-77
2022/11/12 02:22:36;;;;;;;15.15;13.25;;;11.60;85.80;;;;;;10844263;32;20413;-78
2022/11/12 02:28:56;;;;;;;17.23;13.77;;;11.80;85.70;;;;;;10984830;32;20049;-77
2022/11/12 02:35:17;;;;;;;15.95;13.02;;;11.80;85.50;;;;;;10984059;32;20065;-77
2022/11/12 02:41:37;;;;;;;13.90;12.55;;;11.70;85.70;;;;;;10983915;32;20019;-77
2022/11/12 02:47:58;;;;;;;14.20;12.70;;;11.80;85.50;;;;;;10983544;32;20413;-77
2022/11/12 02:54:18;;;;;;;18.45;14.90;;;11.70;85.60;;;;;;10983469;32;20061;-77
2022/11/12 03:00:38;;;;;;;19.85;13.43;;;11.70;85.70;;;;;;10982490;32;20015;-77
2022/11/12 03:06:58;;;;;;;16.12;14.43;;;11.80;85.50;;;;;;10971637;32;20010;-77
2022/11/12 03:13:20;;;;;;;17.25;13.25;;;11.80;85.30;;;;;;10982645;32;20022;-77
2022/11/12 03:19:41;;;;;;;16.90;14.35;;;11.90;85.30;;;;;;10982062;32;20319;-77
2022/11/12 03:26:02;;;;;;;14.60;13.05;;;11.90;85.10;;;;;;10970815;32;20026;-77
2022/11/12 03:32:22;;;;;;;20.08;14.50;;;11.90;85.20;;;;;;10970537;32;20054;-77
2022/11/12 03:38:42;;;;;;;15.63;12.95;;;12.00;85.30;;;;;;10978350;32;20354;-77
2022/11/12 03:45:03;;;;;;;16.25;14.10;;;11.90;85.00;;;;;;10980829;32;20066;-77
2022/11/12 03:51:23;;;;;;;14.35;11.63;;;11.70;85.10;;;;;;10977138;32;20284;-78
2022/11/12 03:57:58;;;;;;;11.10;9.95;;;11.40;85.40;;;;;;10981085;32;20311;-77
2022/11/12 04:04:18;;;;;;;13.52;12.13;;;11.30;85.70;;;;;;10980879;32;20053;-78
2022/11/12 04:10:57;;;;;;;14.98;11.65;;;11.30;85.70;;;;;;10981870;32;20050;-78
2022/11/12 04:23:55;;;;;;;16.35;12.07;;;11.40;85.60;;;;;;11005880;32;20037;-78
2022/11/12 04:30:17;;;;;;;15.35;11.45;;;11.50;85.80;;;;;;11018294;32;20018;-77
2022/11/12 04:36:37;;;;;;;12.35;11.07;;;11.60;85.60;;;;;;11018265;32;20019;-78
2022/11/12 04:49:37;;;;;;;15.65;12.65;;;11.40;85.70;;;;;;11017593;32;20022;-77
2022/11/12 04:55:58;;;;;;;14.98;11.77;;;11.50;85.60;;;;;;11006068;32;20041;-78
2022/11/12 05:02:18;;;;;;;14.93;11.45;;;11.40;85.40;;;;;;11005832;32;20041;-78
2022/11/12 05:08:43;;;;;;;15.30;11.05;;;11.20;85.70;;;;;;11017368;32;20030;-78
2022/11/12 05:15:05;;;;;;;10.68;9.57;;;11.10;85.80;;;;;;11017278;32;20366;-78
2022/11/12 05:28:03;;;;;;;11.07;8.80;;;10.90;86.10;;;;;;11021946;32;20027;-77
2022/11/12 05:34:24;;;;;;;12.05;9.13;;;11.20;86.30;;;;;;11024173;32;20018;-77
2022/11/12 05:40:44;;;;;;;8.30;5.82;;;11.30;86.30;;;;;;11024423;32;20307;-78
2022/11/12 05:47:04;;;;;;;12.63;10.70;;;11.20;86.10;;;;;;11021141;32;20073;-78
2022/11/12 05:53:24;;;;;;;9.88;8.10;;;11.10;86.40;;;;;;11023749;32;20304;-78
2022/11/12 05:59:44;;;;;;;9.05;7.22;;;11.20;86.20;;;;;;11023592;32;20045;-77
2022/11/12 06:06:05;;;;;;;9.90;7.82;;;11.00;86.30;;;;;;11023408;32;20044;-78
2022/11/12 06:12:25;;;;;;;10.55;7.00;;;11.10;86.40;;;;;;11023088;32;20006;-77
2022/11/12 06:18:45;;;;;;;7.28;5.68;;;11.20;86.20;;;;;;11023061;32;20374;-78
2022/11/12 06:25:05;;;;;;;10.13;8.35;;;11.20;86.20;;;;;;11022463;32;20022;-78
2022/11/12 06:31:25;;;;;;;8.65;7.35;;;11.00;86.30;;;;;;11022032;32;20018;-78
2022/11/12 06:37:48;;;;;;;8.30;7.47;;;11.10;86.40;;;;;;11016870;32;20057;-78
2022/11/12 06:44:09;;;;;;;9.20;7.37;;;11.20;86.30;;;;;;11022073;32;20048;-78
2022/11/12 06:50:29;;;;;;;9.73;7.53;;;11.10;86.30;;;;;;11012949;32;20394;-78
2022/11/12 06:56:50;;;;;;;16.23;9.57;;;11.10;86.30;;;;;;10983089;32;20335;-78
2022/11/12 07:03:13;;;;;;;12.10;9.23;;;11.00;86.50;;;;;;10983114;32;20011;-78
2022/11/12 07:09:42;;;;;;;12.35;8.95;;;11.00;86.50;;;;;;10982900;32;20419;-78
2022/11/12 07:16:05;;;;;;;11.07;8.05;;;11.00;86.60;;;;;;10982154;32;20015;-78
2022/11/12 07:22:25;;;;;;;10.52;7.87;;;11.10;86.50;;;;;;10981357;32;20018;-78
2022/11/12 07:28:46;;;;;;;12.18;8.75;;;11.20;86.50;;;;;;10993517;32;20023;-75
2022/11/12 07:35:07;;;;;;;14.93;8.45;;;11.20;86.50;;;;;;11018811;32;20053;-75
2022/11/12 07:41:27;;;;;;;10.00;6.72;;;11.20;86.50;;;;;;11019927;32;20018;-75
2022/11/12 07:47:47;;;;;;;10.82;8.10;;;11.20;86.70;;;;;;11019524;32;20028;-76
2022/11/12 07:54:07;;;;;;;13.75;8.00;;;11.20;86.50;;;;;;11019526;32;20026;-75
2022/11/12 08:00:27;;;;;;;10.73;8.02;;;11.20;86.60;;;;;;11015614;32;20427;-75
2022/11/12 08:07:06;;;;;;;12.27;8.50;;;11.10;86.50;;;;;;11019713;32;20049;-75
2022/11/12 08:13:27;;;;;;;9.10;7.10;;;11.10;86.60;;;;;;11006891;32;20026;-75
2022/11/12 08:19:47;;;;;;;9.88;7.87;;;11.20;86.60;;;;;;11007161;32;20010;-75
2022/11/12 08:26:15;;;;;;;15.10;10.63;;;11.20;86.50;;;;;;10565107;32;12143386;-76
2022/11/12 08:32:36;;;;;;;19.33;17.08;;;11.20;86.40;;;;;;10939006;32;20223;-76
2022/11/12 08:38:56;;;;;;;17.95;15.15;;;11.20;86.30;;;;;;10939572;32;20149;-75
2022/11/12 08:45:16;;;;;;;13.48;11.10;;;11.20;86.20;;;;;;10939102;32;20046;-75
2022/11/12 08:51:36;;;;;;;14.80;12.70;;;11.20;86.30;;;;;;11010927;32;20022;-76
2022/11/12 08:58:14;;;;;;;14.50;10.63;;;11.30;86.30;;;;;;11014104;32;20375;-75
2022/11/12 09:04:47;;;;;;;19.75;16.25;;;11.50;86.30;;;;;;11017505;32;20409;-74
2022/11/12 09:11:07;;;;;;;14.13;11.18;;;11.60;86.10;;;;;;11017490;32;20319;-76
2022/11/12 09:17:29;;;;;;;12.65;10.45;;;11.70;85.90;;;;;;11005683;32;20307;-76
2022/11/12 09:23:54;;;;;;;15.35;13.15;;;11.80;85.90;;;;;;11013007;32;20084;-76
2022/11/12 09:30:15;;;;;;;22.92;17.12;;;11.90;85.80;;;;;;11017256;32;20041;-74
2022/11/12 09:37:04;;;;;;;15.85;13.13;;;12.00;85.80;;;;;;11008583;32;20037;-76
2022/11/12 09:43:30;;;;;;;15.63;11.65;;;12.20;85.70;;;;;;11005153;32;20026;-77
2022/11/12 09:50:16;;;;;;;16.37;13.30;;;12.30;85.70;;;;;;11016317;32;20022;-75
2022/11/12 09:56:37;;;;;;;16.83;14.60;;;12.40;85.60;;;;;;11016566;32;20014;-74
2022/11/12 10:03:02;;;;;;;14.93;13.43;;;12.50;85.50;;;;;;11014323;32;20018;-76
2022/11/12 10:09:37;;;;;;;18.05;15.02;;;12.50;85.40;;;;;;11016240;32;20038;-75
2022/11/12 10:23:12;;;;;;;11.32;9.07;;;12.70;85.40;;;;;;11021224;32;20152;-74
2022/11/12 10:30:04;;;;;;;11.20;8.52;;;12.70;85.30;;;;;;11022750;32;20041;-75
2022/11/12 10:36:34;;;;;;;11.30;7.12;;;12.90;85.30;;;;;;11022620;32;20019;-75
2022/11/12 10:43:18;;;;;;;9.68;6.78;;;13.00;85.20;;;;;;11017407;32;20420;-74
2022/11/12 10:49:38;;;;;;;9.35;7.45;;;13.20;85.10;;;;;;11023054;32;20022;-74
2022/11/12 10:56:01;;;;;;;11.05;7.22;;;13.30;85.10;;;;;;11010114;32;20018;-75
2022/11/12 11:02:34;;;;;;;7.35;4.87;;;13.30;85.00;;;;;;11017362;32;20041;-75
2022/11/12 11:09:15;;;;;;;8.90;6.30;;;13.50;85.10;;;;;;11017700;32;20061;-77
2022/11/12 11:15:39;;;;;;;8.10;5.93;;;13.60;85.10;;;;;;11021196;32;20019;-77
2022/11/12 11:22:22;;;;;;;8.23;3.92;;;13.60;85.10;;;;;;11020185;32;20038;-77
2022/11/12 11:28:51;;;;;;;14.25;11.48;;;13.70;85.00;;;;;;11008860;32;20026;-77
2022/11/12 11:35:14;;;;;;;10.50;6.78;;;13.70;85.20;;;;;;11021454;32;20393;-77
2022/11/12 11:42:34;;;;;;;11.80;6.50;;;13.70;85.10;;;;;;11020177;32;20354;-77
2022/11/12 11:49:32;;;;;;;10.70;6.75;;;13.70;85.00;;;;;;11019848;32;20041;-77
2022/11/12 11:56:21;;;;;;;10.60;7.30;;;13.80;84.90;;;;;;11019647;32;20310;-77
2022/11/12 12:03:19;;;;;;;11.43;8.43;;;13.90;84.90;;;;;;11000606;32;20019;-77
2022/11/12 12:10:12;;;;;;;13.20;10.80;;;13.90;84.80;;;;;;10969367;32;20373;-77
2022/11/12 12:16:44;;;;;;;17.50;12.02;;;14.00;84.80;;;;;;10981394;32;20331;-77
2022/11/12 12:23:25;;;;;;;10.13;8.10;;;14.10;84.70;;;;;;10980304;32;20347;-77
2022/11/12 12:29:49;;;;;;;12.27;10.50;;;14.20;84.60;;;;;;10987906;32;20362;-77
2022/11/12 12:36:40;;;;;;;15.65;11.68;;;14.20;84.60;;;;;;10979295;32;20045;-77
2022/11/12 12:43:24;;;;;;;12.20;9.45;;;14.30;84.50;;;;;;10979638;32;20413;-77
2022/11/12 12:49:46;;;;;;;20.05;16.42;;;14.30;84.50;;;;;;10980165;32;20018;-76
2022/11/12 12:56:14;;;;;;;21.40;16.67;;;14.30;84.40;;;;;;10980873;32;20018;-76
2022/11/12 13:02:43;;;;;;;22.00;16.08;;;14.30;84.20;;;;;;10979636;32;20084;-77
2022/11/12 13:09:32;;;;;;;18.12;14.27;;;14.30;84.10;;;;;;11005898;32;20418;-79
2022/11/12 13:15:55;;;;;;;17.67;14.73;;;14.30;84.10;;;;;;11005380;32;20053;-77
2022/11/12 13:22:18;;;;;;;20.05;14.77;;;14.40;84.20;;;;;;11006010;32;20026;-77
2022/11/12 13:29:28;;;;;;;16.85;14.45;;;14.50;84.00;;;;;;11012950;32;20058;-76
2022/11/12 13:35:48;;;;;;;19.17;15.23;;;14.50;83.90;;;;;;10983595;32;20019;-77
2022/11/12 13:42:49;;;;;;;14.43;11.18;;;14.60;84.10;;;;;;10966944;32;20015;-77
2022/11/12 13:49:14;;;;;;;14.18;12.07;;;14.70;84.00;;;;;;10906078;32;20069;-77
2022/11/12 13:55:33;;;;;;;9.75;7.55;;;14.70;84.00;;;;;;10892521;32;20067;-76
2022/11/12 14:01:54;;;;;;;13.82;12.07;;;14.70;84.00;;;;;;10902050;32;20113;-76
2022/11/12 14:08:28;;;;;;;15.30;10.57;;;14.70;83.90;;;;;;10907305;32;20031;-76
2022/11/12 14:15:26;;;;;;;17.73;11.75;;;14.70;84.00;;;;;;10912406;32;20311;-76
2022/11/12 14:22:16;;;;;;;13.43;10.02;;;14.70;84.00;;;;;;10973659;32;20038;-76
2022/11/12 14:28:38;;;;;;;16.08;10.90;;;14.70;84.10;;;;;;11000446;32;20053;-76
2022/11/12 14:34:59;;;;;;;13.27;10.13;;;14.60;84.00;;;;;;11022762;32;20019;-76
2022/11/12 14:41:21;;;;;;;11.77;8.88;;;14.60;84.30;;;;;;11022442;32;20015;-76
2022/11/12 14:47:54;;;;;;;13.27;9.35;;;14.50;84.30;;;;;;10991147;32;20015;-76
2022/11/12 14:54:28;;;;;;;11.63;8.10;;;14.40;84.40;;;;;;10984658;32;20344;-76
2022/11/12 15:00:52;;;;;;;10.90;7.75;;;14.40;84.50;;;;;;11004412;32;20045;-76
2022/11/12 15:07:50;;;;;;;11.98;10.23;;;14.30;84.60;;;;;;11022109;32;20026;-76
2022/11/12 15:14:20;;;;;;;15.07;9.05;;;14.30;84.80;;;;;;11021308;32;20018;-76
2022/11/12 15:20:41;;;;;;;13.50;9.73;;;14.20;84.80;;;;;;11009701;32;20045;-76
2022/11/12 15:27:32;;;;;;;11.63;10.38;;;14.20;85.00;;;;;;10989921;32;20011;-76
2022/11/12 15:33:52;;;;;;;15.15;9.95;;;14.10;85.10;;;;;;10971186;32;20023;-76
2022/11/12 15:40:19;;;;;;;14.82;9.70;;;14.00;85.20;;;;;;11013134;32;20018;-76
2022/11/12 15:46:40;;;;;;;9.25;7.12;;;13.90;85.40;;;;;;11009351;32;20022;-76
2022/11/12 15:53:00;;;;;;;10.60;8.18;;;13.80;85.50;;;;;;10981637;32;20061;-76
2022/11/12 15:59:21;;;;;;;13.85;9.30;;;13.80;85.70;;;;;;10991018;32;20053;-75
2022/11/12 16:05:43;;;;;;;16.75;12.10;;;13.70;85.70;;;;;;10989116;32;20019;-75
2022/11/12 16:12:04;;;;;;;13.10;10.02;;;13.70;85.70;;;;;;10983239;32;20022;-76
2022/11/12 16:18:24;;;;;;;18.17;12.93;;;13.70;85.90;;;;;;10995807;32;20080;-76
2022/11/12 16:24:44;;;;;;;14.98;12.52;;;13.70;85.90;;;;;;11029754;27;20373;-76
2022/11/12 16:31:05;;;;;;;13.20;10.68;;;13.60;86.00;;;;;;11024096;32;20088;-76
2022/11/12 16:37:25;;;;;;;15.77;10.90;;;13.60;86.00;;;;;;11021302;32;20022;-76
2022/11/12 16:43:53;;;;;;;15.43;12.73;;;13.50;86.10;;;;;;11020699;32;20045;-76
2022/11/12 16:50:42;;;;;;;13.45;9.82;;;13.50;86.10;;;;;;11039266;32;20022;-76
2022/11/12 16:57:03;;;;;;;12.30;9.68;;;13.50;86.20;;;;;;11014059;32;20018;-76
2022/11/12 17:03:46;;;;;;;12.43;9.52;;;13.30;86.20;;;;;;11017226;32;20014;-76
2022/11/12 17:10:08;;;;;;;11.05;7.57;;;13.30;86.30;;;;;;11017125;32;20018;-76
2022/11/12 17:16:28;;;;;;;11.70;8.38;;;13.30;86.40;;;;;;11005525;32;20041;-76
2022/11/12 17:22:49;;;;;;;14.27;11.05;;;13.30;86.40;;;;;;11021125;32;20045;-76
2022/11/12 17:29:11;;;;;;;15.50;12.05;;;13.30;86.40;;;;;;11024669;32;20010;-76
2022/11/12 17:35:39;;;;;;;13.45;10.48;;;13.30;86.60;;;;;;11024518;32;20019;-76
2022/11/12 17:41:59;;;;;;;14.32;11.32;;;13.30;86.60;;;;;;11024176;32;20409;-76
2022/11/12 17:48:24;;;;;;;16.02;11.82;;;13.30;86.70;;;;;;11024260;32;20022;-78
2022/11/12 17:54:46;;;;;;;14.82;10.90;;;13.30;86.60;;;;;;11023613;32;20312;-78
2022/11/12 18:01:10;;;;;;;19.67;15.40;;;13.30;86.70;;;;;;11023597;32;20382;-78
2022/11/12 18:07:31;;;;;;;22.67;13.13;;;13.30;86.60;;;;;;11023567;32;20045;-77
2022/11/12 18:13:50;;;;;;;11.95;8.75;;;13.30;86.60;;;;;;11023276;32;20018;-77
2022/11/12 18:20:11;;;;;;;21.55;15.52;;;13.30;86.60;;;;;;11022326;32;20040;-77
2022/11/12 18:26:32;;;;;;;18.95;13.43;;;13.30;86.70;;;;;;11022664;32;20312;-77
2022/11/12 18:32:52;;;;;;;17.98;15.00;;;13.30;86.60;;;;;;11018514;32;20053;-77
2022/11/12 18:39:13;;;;;;;24.05;16.92;;;13.30;86.70;;;;;;11022530;32;20429;-77
2022/11/12 18:45:33;;;;;;;17.08;11.25;;;13.20;86.80;;;;;;11022268;32;19999;-77
2022/11/12 18:51:54;;;;;;;14.77;11.12;;;13.20;86.80;;;;;;11021788;32;20022;-77
2022/11/12 18:58:14;;;;;;;16.70;14.18;;;13.20;86.80;;;;;;11021786;32;20045;-77
2022/11/12 19:04:34;;;;;;;26.83;18.30;;;13.20;87.00;;;;;;11020505;32;20050;-77
2022/11/12 19:11:03;;;;;;;22.08;17.55;;;13.20;87.00;;;;;;11021178;32;20043;-77
2022/11/12 19:17:44;;;;;;;22.67;18.17;;;13.20;87.00;;;;;;11021124;32;20007;-77
2022/11/12 19:24:05;;;;;;;22.75;19.23;;;13.20;87.00;;;;;;11020749;32;20043;-77
2022/11/12 19:30:25;;;;;;;17.77;15.95;;;13.20;87.10;;;;;;11006287;32;20437;-77
2022/11/12 19:37:04;;;;;;;17.05;14.73;;;13.20;87.00;;;;;;11022162;32;20044;-77
2022/11/12 19:43:24;;;;;;;23.45;19.58;;;13.20;87.10;;;;;;11019127;32;20026;-77
2022/11/12 19:49:57;;;;;;;22.48;19.05;;;13.20;87.20;;;;;;11019907;32;20355;-77
2022/11/12 19:56:20;;;;;;;23.05;18.08;;;13.10;87.30;;;;;;11019445;32;20022;-77
2022/11/12 20:02:40;;;;;;;18.35;16.40;;;13.20;87.30;;;;;;11019490;32;20315;-77
2022/11/12 20:09:02;;;;;;;20.08;15.10;;;13.20;87.20;;;;;;11019046;32;20028;-77
2022/11/12 20:15:22;;;;;;;21.85;13.82;;;13.20;87.20;;;;;;11018983;32;20041;-77
2022/11/12 20:21:44;;;;;;;16.77;14.25;;;13.20;87.20;;;;;;11018865;32;20022;-77
2022/11/12 20:28:03;;;;;;;19.67;15.95;;;13.20;87.30;;;;;;11015506;32;20319;-77
2022/11/12 20:34:24;;;;;;;21.95;15.82;;;13.20;87.20;;;;;;11018382;32;20010;-77
2022/11/12 20:40:57;;;;;;;23.25;17.23;;;13.30;87.20;;;;;;11018109;32;20375;-77
2022/11/12 20:47:17;;;;;;;16.55;14.73;;;13.20;87.30;;;;;;11017870;32;20044;-77
2022/11/12 20:53:38;;;;;;;20.65;17.08;;;13.20;87.40;;;;;;11017776;32;20041;-77
2022/11/12 21:00:04;;;;;;;23.83;18.08;;;13.20;87.60;;;;;;11017352;32;20007;-77
2022/11/12 21:06:45;;;;;;;19.50;16.98;;;13.30;87.50;;;;;;11017537;32;20050;-77
2022/11/12 21:13:06;;;;;;;20.20;17.20;;;13.30;87.50;;;;;;11017271;32;20438;-75
2022/11/12 21:19:41;;;;;;;20.20;17.12;;;13.20;87.60;;;;;;11017292;32;20037;-77
2022/11/12 21:26:31;;;;;;;16.70;14.70;;;13.20;87.70;;;;;;11017075;32;20011;-77
2022/11/12 21:32:52;;;;;;;14.75;11.98;;;13.20;87.80;;;;;;11016879;32;20014;-77
2022/11/12 21:39:12;;;;;;;15.63;13.75;;;13.20;87.70;;;;;;11017464;32;20018;-77
2022/11/12 21:45:32;;;;;;;16.80;13.57;;;13.30;87.70;;;;;;11005168;32;20022;-77
2022/11/12 21:51:53;;;;;;;13.23;10.45;;;13.20;87.80;;;;;;11016536;32;20022;-77
2022/11/12 21:58:13;;;;;;;14.07;10.88;;;13.20;87.90;;;;;;11006663;32;20100;-77
2022/11/12 22:04:34;;;;;;;13.55;10.13;;;13.20;88.00;;;;;;11016665;32;20033;-77
2022/11/12 22:11:06;;;;;;;13.62;11.45;;;13.20;87.80;;;;;;11022613;32;20036;-77
2022/11/12 22:17:51;;;;;;;18.75;11.93;;;13.20;87.70;;;;;;11023357;32;20015;-77
2022/11/12 22:24:11;;;;;;;16.95;12.68;;;13.20;87.60;;;;;;11023089;32;20292;-76
2022/11/12 22:30:32;;;;;;;12.10;8.93;;;13.20;87.70;;;;;;11022453;32;20018;-76
2022/11/12 22:36:52;;;;;;;11.00;9.82;;;13.30;87.60;;;;;;11022401;32;20010;-77
2022/11/12 22:43:13;;;;;;;12.10;9.82;;;13.30;87.50;;;;;;11022348;32;20011;-77
2022/11/12 22:49:33;;;;;;;16.87;8.35;;;13.30;87.60;;;;;;11022164;32;20045;-77
2022/11/12 22:56:07;;;;;;;10.75;6.50;;;13.30;87.30;;;;;;11021860;32;20379;-76
2022/11/12 23:02:27;;;;;;;8.27;5.70;;;13.40;86.80;;;;;;11018420;32;20025;-76
2022/11/12 23:08:48;;;;;;;8.88;6.03;;;13.50;86.80;;;;;;11039032;32;20018;-76
2022/11/12 23:15:21;;;;;;;9.30;7.12;;;13.50;86.60;;;;;;11026475;32;20011;-77
2022/11/12 23:21:46;;;;;;;8.88;6.18;;;13.50;86.30;;;;;;11020296;32;20045;-77
2022/11/12 23:28:06;;;;;;;7.10;5.72;;;13.40;85.80;;;;;;11020616;32;20064;-77
2022/11/12 23:34:28;;;;;;;9.98;7.20;;;13.40;85.90;;;;;;11019177;32;20387;-77
2022/11/12 23:40:55;;;;;;;7.57;4.90;;;13.30;85.60;;;;;;11020320;32;20040;-77
2022/11/12 23:47:14;;;;;;;9.40;5.18;;;13.30;85.30;;;;;;11019921;32;20319;-76
2022/11/12 23:53:36;;;;;;;7.40;5.25;;;13.20;85.50;;;;;;11017122;32;20413;-76
2022/11/12 23:59:56;;;;;;;6.25;4.18;;;13.20;85.80;;;;;;11019676;32;20003;-76
